Westmoreland, Tennessee
Current Conditions -  °F | °C
As of 3:53 AM on Wednesday 22 Oct 2014 (Local Time) from KBWG Reporting Station
Clear Clear  
Wind Chill: 43°   Ceiling: Unl
Heat Index: 45°   Visibility: 10mi
Dew Point: 40°   Wind: 5mph
Humidity: 82%   Direction: 40°NE
Pressure: 30.19"   Gusts: NA
Location:  36.56°N, 86.25°W
Report Text: KBWG 220853Z AUTO 04004KT 10SM CLR 07/04 A3019 RMK AO2 SLP222 T00720044 53010
Loading
Personal Weather Stations






























Interactive Weather Map
Tropical Storm Tracking
New forecast layout! Learn more

10-Day Weather Forecast

Advertisements
Track Severe Weather on mobile